Time;durP1;ratioP1;P1;durP2;ratioP2;P2;SDS_P1;SDS_P2;PMS_P1;PMS_P2;Temp;Humidity;BMP_temperature;BMP_pressure;BME280_temperature;BME280_humidity;BME280_pressure;Samples;Min_cycle;Max_cycle;Signal;HPM_P1;HPM_P2
2023/03/03 00:01:31;;;;;;;61.70;30.77;;;3.90;33.30;;;;;;4996732;28;20491;-61
2023/03/03 00:04:00;;;;;;;58.93;30.43;;;3.90;33.50;;;;;;5002592;28;20480;-60
2023/03/03 00:06:29;;;;;;;58.30;30.13;;;3.90;33.60;;;;;;5005058;28;20475;-61
2023/03/03 00:08:56;;;;;;;63.67;32.10;;;3.90;33.40;;;;;;5006111;28;20467;-61
2023/03/03 00:11:23;;;;;;;60.50;30.20;;;3.90;33.30;;;;;;4995881;28;20495;-61
2023/03/03 00:13:52;;;;;;;63.93;33.17;;;3.90;33.40;;;;;;4998476;28;21218;-60
2023/03/03 00:16:24;;;;;;;65.43;31.80;;;3.90;33.40;;;;;;4998256;28;20475;-61
2023/03/03 00:18:52;;;;;;;56.50;33.00;;;3.90;33.40;;;;;;5000726;28;20460;-61
2023/03/03 00:21:29;;;;;;;55.50;30.60;;;3.90;33.40;;;;;;4996418;28;20483;-61
2023/03/03 00:24:15;;;;;;;65.67;30.43;;;3.90;33.50;;;;;;4999716;28;20946;-61
2023/03/03 00:26:45;;;;;;;61.73;31.13;;;3.90;33.60;;;;;;5001405;28;20459;-61
2023/03/03 00:29:29;;;;;;;64.83;32.60;;;3.90;33.50;;;;;;5001261;28;20464;-61
2023/03/03 00:32:12;;;;;;;60.37;31.27;;;3.90;33.60;;;;;;4997736;28;20474;-61
2023/03/03 00:34:40;;;;;;;56.63;30.37;;;3.90;33.30;;;;;;5004544;28;20470;-61
2023/03/03 00:37:23;;;;;;;61.40;33.83;;;3.90;33.10;;;;;;5001747;28;20502;-61
2023/03/03 00:39:49;;;;;;;58.43;31.60;;;3.90;33.40;;;;;;5003904;28;20463;-61
2023/03/03 00:42:17;;;;;;;63.30;30.37;;;3.90;33.30;;;;;;5008113;28;20484;-61
2023/03/03 00:44:46;;;;;;;61.40;31.47;;;3.90;33.30;;;;;;5004466;28;20466;-61
2023/03/03 00:47:27;;;;;;;58.53;30.60;;;3.90;33.20;;;;;;5004162;28;20459;-61
2023/03/03 00:50:00;;;;;;;63.03;31.17;;;4.00;33.20;;;;;;5006508;28;20456;-61
2023/03/03 00:52:28;;;;;;;61.53;29.97;;;4.00;33.00;;;;;;4999444;28;20591;-61
2023/03/03 00:54:55;;;;;;;62.03;31.53;;;4.00;33.00;;;;;;5007751;28;20482;-61
2023/03/03 00:57:22;;;;;;;57.23;29.83;;;4.00;32.80;;;;;;5002641;28;20869;-61
2023/03/03 00:59:49;;;;;;;59.87;32.67;;;4.00;32.80;;;;;;5007658;28;20464;-61
2023/03/03 01:02:16;;;;;;;61.47;31.30;;;4.00;32.90;;;;;;5006030;28;20958;-61
2023/03/03 01:04:46;;;;;;;60.23;30.97;;;4.00;32.80;;;;;;4998566;28;20471;-61
2023/03/03 01:07:13;;;;;;;57.70;30.30;;;4.00;32.80;;;;;;5000808;28;20848;-61
2023/03/03 01:09:41;;;;;;;60.13;32.00;;;4.00;32.80;;;;;;5007510;28;20649;-61
2023/03/03 01:12:08;;;;;;;54.80;30.43;;;4.00;32.90;;;;;;5003164;28;20535;-61
2023/03/03 01:14:34;;;;;;;59.67;32.70;;;4.00;32.90;;;;;;5006920;28;20459;-61
2023/03/03 01:17:01;;;;;;;64.83;32.37;;;4.00;32.80;;;;;;5006149;28;20484;-61
2023/03/03 01:19:28;;;;;;;63.80;31.40;;;4.00;32.80;;;;;;5007553;28;20948;-61
2023/03/03 01:21:54;;;;;;;58.63;31.30;;;4.00;32.90;;;;;;5001371;28;20456;-61
2023/03/03 01:24:21;;;;;;;58.63;31.70;;;4.00;32.90;;;;;;5005308;28;20979;-62
2023/03/03 01:26:49;;;;;;;58.10;30.63;;;4.00;32.70;;;;;;5005404;28;20455;-61
2023/03/03 01:29:16;;;;;;;57.40;32.30;;;4.00;32.70;;;;;;5001805;28;20469;-61
2023/03/03 01:31:43;;;;;;;59.83;32.07;;;4.00;32.80;;;;;;5000096;28;20477;-61
2023/03/03 01:34:09;;;;;;;56.90;30.30;;;4.00;32.80;;;;;;5003574;28;20487;-61
2023/03/03 01:36:36;;;;;;;62.83;30.97;;;4.00;32.80;;;;;;5006320;28;20487;-61
2023/03/03 01:39:04;;;;;;;59.93;32.80;;;4.00;32.90;;;;;;5003373;28;20541;-61
2023/03/03 01:41:32;;;;;;;59.80;31.97;;;4.00;32.90;;;;;;5005153;28;20460;-60
2023/03/03 01:44:00;;;;;;;60.27;30.60;;;4.00;32.90;;;;;;5003858;28;20642;-60
2023/03/03 01:46:38;;;;;;;58.90;31.40;;;4.00;32.90;;;;;;5002089;28;21149;-60
2023/03/03 01:49:11;;;;;;;61.00;31.57;;;4.00;32.90;;;;;;4995411;28;20459;-61
2023/03/03 01:51:45;;;;;;;60.00;30.10;;;4.00;32.80;;;;;;5006421;28;20464;-60
2023/03/03 01:54:16;;;;;;;52.40;30.10;;;4.00;32.80;;;;;;4995150;28;20858;-60
2023/03/03 01:56:43;;;;;;;62.07;31.17;;;4.00;32.70;;;;;;4994225;28;20484;-61
2023/03/03 01:59:15;;;;;;;56.30;29.43;;;4.00;32.70;;;;;;5001001;28;20681;-61
2023/03/03 02:01:43;;;;;;;55.70;30.13;;;4.00;32.70;;;;;;4998507;28;20503;-61
2023/03/03 02:04:10;;;;;;;57.60;30.93;;;4.00;32.80;;;;;;5002009;28;20493;-61
2023/03/03 02:06:41;;;;;;;56.87;31.00;;;4.00;32.70;;;;;;5000419;28;21003;-60
2023/03/03 02:09:12;;;;;;;62.50;32.87;;;4.00;32.80;;;;;;5002627;28;20463;-62
2023/03/03 02:11:42;;;;;;;55.83;30.80;;;4.00;32.70;;;;;;5002622;28;20482;-61
2023/03/03 02:14:11;;;;;;;62.30;32.70;;;4.00;32.80;;;;;;5000470;28;20480;-60
2023/03/03 02:16:39;;;;;;;54.70;30.00;;;4.10;32.90;;;;;;5003592;28;20479;-60
2023/03/03 02:19:13;;;;;;;64.87;32.50;;;4.10;32.80;;;;;;5003249;28;20472;-61
2023/03/03 02:21:39;;;;;;;59.43;29.37;;;4.10;32.70;;;;;;4997577;28;20992;-61
2023/03/03 02:24:13;;;;;;;63.27;32.20;;;4.10;32.70;;;;;;4999029;28;21233;-61
2023/03/03 02:26:41;;;;;;;57.77;32.60;;;4.00;32.70;;;;;;5004261;28;20464;-61
2023/03/03 02:29:09;;;;;;;63.20;31.87;;;4.00;32.70;;;;;;5002599;28;20491;-61
2023/03/03 02:31:36;;;;;;;63.83;32.23;;;4.00;32.70;;;;;;5000709;28;20475;-61
2023/03/03 02:34:03;;;;;;;55.87;29.47;;;4.00;32.70;;;;;;5004267;28;20476;-61
2023/03/03 02:36:31;;;;;;;62.17;32.07;;;4.00;32.90;;;;;;5002045;28;20472;-61
2023/03/03 02:39:05;;;;;;;58.73;31.77;;;4.00;32.70;;;;;;5006189;28;20463;-60
2023/03/03 02:41:36;;;;;;;58.97;32.53;;;4.00;32.60;;;;;;4996077;28;20460;-61
2023/03/03 02:44:06;;;;;;;64.80;31.93;;;4.00;32.60;;;;;;4999840;28;20479;-61
2023/03/03 02:46:34;;;;;;;64.60;32.10;;;4.10;32.70;;;;;;4999541;28;20529;-61
2023/03/03 02:49:01;;;;;;;58.60;33.93;;;4.00;32.70;;;;;;5007698;28;20491;-61
2023/03/03 02:51:28;;;;;;;61.63;32.33;;;3.90;32.60;;;;;;4995541;28;20864;-61
2023/03/03 02:53:55;;;;;;;61.13;32.33;;;4.00;32.60;;;;;;5001185;28;20491;-61
2023/03/03 02:56:22;;;;;;;53.43;30.20;;;4.00;32.60;;;;;;4999812;28;20488;-61
2023/03/03 02:58:49;;;;;;;72.60;35.30;;;4.00;32.70;;;;;;5004148;28;20460;-61
2023/03/03 03:01:17;;;;;;;62.60;33.30;;;4.00;32.70;;;;;;5003638;28;20499;-61
2023/03/03 03:03:43;;;;;;;66.30;32.30;;;3.90;32.70;;;;;;5001592;28;20484;-61
2023/03/03 03:06:10;;;;;;;61.70;32.23;;;4.00;32.70;;;;;;4999610;28;20466;-61
2023/03/03 03:08:37;;;;;;;58.30;32.20;;;4.00;32.70;;;;;;5006082;28;20471;-61
2023/03/03 03:11:04;;;;;;;60.43;33.83;;;4.00;32.70;;;;;;5004537;28;21026;-61
2023/03/03 03:13:32;;;;;;;65.93;32.83;;;3.90;32.80;;;;;;5004745;28;20518;-61
2023/03/03 03:15:59;;;;;;;60.93;30.13;;;3.90;32.80;;;;;;5005310;28;20452;-61
2023/03/03 03:18:28;;;;;;;62.83;33.10;;;3.90;32.80;;;;;;5000509;28;20463;-61
2023/03/03 03:20:55;;;;;;;70.27;34.47;;;4.00;32.80;;;;;;4998996;28;20952;-61
2023/03/03 03:23:21;;;;;;;65.80;33.90;;;4.00;32.80;;;;;;4998716;28;21034;-61
2023/03/03 03:25:48;;;;;;;58.53;32.43;;;4.00;32.70;;;;;;5005362;28;20474;-61
2023/03/03 03:28:17;;;;;;;65.60;32.40;;;3.90;32.70;;;;;;5002459;28;20515;-61
2023/03/03 03:30:44;;;;;;;67.10;32.97;;;4.00;32.70;;;;;;5000592;28;21050;-61
2023/03/03 03:33:11;;;;;;;68.57;34.17;;;4.00;32.70;;;;;;5002001;28;20477;-61
2023/03/03 03:35:44;;;;;;;60.37;30.80;;;4.00;32.60;;;;;;5004256;28;20456;-61
2023/03/03 03:38:11;;;;;;;63.77;33.60;;;4.00;32.60;;;;;;5001146;28;20479;-61
2023/03/03 03:40:38;;;;;;;58.53;29.60;;;4.00;32.70;;;;;;5000933;28;20463;-61
2023/03/03 03:43:04;;;;;;;67.50;32.93;;;4.00;32.60;;;;;;5002927;28;20492;-60
2023/03/03 03:45:31;;;;;;;58.27;33.10;;;4.00;32.70;;;;;;4999656;28;20468;-61
2023/03/03 03:47:58;;;;;;;58.97;31.00;;;4.00;32.80;;;;;;5001422;28;20456;-61
2023/03/03 03:50:24;;;;;;;58.57;32.40;;;4.00;32.90;;;;;;4999922;28;20495;-61
2023/03/03 03:52:52;;;;;;;55.70;31.03;;;4.00;32.80;;;;;;5001604;28;20499;-61
2023/03/03 03:55:20;;;;;;;60.17;32.00;;;4.00;32.70;;;;;;5000607;28;20464;-60
2023/03/03 03:57:47;;;;;;;58.43;30.60;;;4.00;32.70;;;;;;4999479;28;20480;-61
2023/03/03 04:00:14;;;;;;;68.40;32.37;;;4.00;32.70;;;;;;4994326;28;20752;-61
2023/03/03 04:02:41;;;;;;;67.80;34.73;;;4.00;32.70;;;;;;5003613;28;20475;-61
2023/03/03 04:05:08;;;;;;;61.97;31.07;;;4.00;32.70;;;;;;5006594;28;20464;-61
2023/03/03 04:07:35;;;;;;;61.60;33.67;;;4.10;32.80;;;;;;5000096;28;20464;-60
2023/03/03 04:10:03;;;;;;;60.57;32.23;;;4.10;32.70;;;;;;4993951;28;20470;-61
2023/03/03 04:12:34;;;;;;;61.97;33.10;;;4.10;32.70;;;;;;5006593;28;20499;-61
2023/03/03 04:15:01;;;;;;;65.70;33.90;;;4.10;32.70;;;;;;5004274;28;20847;-61
2023/03/03 04:17:28;;;;;;;58.30;31.40;;;4.10;32.70;;;;;;5005995;28;21006;-63
2023/03/03 04:19:54;;;;;;;60.43;32.07;;;4.10;32.60;;;;;;5001712;28;20456;-60
2023/03/03 04:22:21;;;;;;;60.90;31.90;;;4.10;32.60;;;;;;5010764;28;20876;-61
2023/03/03 04:24:48;;;;;;;63.90;33.03;;;4.10;32.60;;;;;;5001665;28;20460;-60
2023/03/03 04:27:16;;;;;;;63.07;32.50;;;4.10;32.70;;;;;;5002930;28;20451;-61
2023/03/03 04:29:43;;;;;;;63.03;34.53;;;4.10;32.70;;;;;;5002609;28;20469;-61
2023/03/03 04:32:09;;;;;;;61.60;33.10;;;4.10;32.70;;;;;;4997569;28;20480;-60
2023/03/03 04:34:36;;;;;;;64.67;33.50;;;4.10;32.70;;;;;;5002335;28;20699;-60
2023/03/03 04:37:03;;;;;;;55.50;29.57;;;4.10;32.80;;;;;;5000504;28;20479;-61
2023/03/03 04:39:30;;;;;;;65.20;32.80;;;4.10;32.90;;;;;;5006625;28;20464;-61
2023/03/03 04:41:56;;;;;;;61.33;32.03;;;4.10;32.80;;;;;;4998559;28;20463;-61
2023/03/03 04:44:25;;;;;;;61.87;31.33;;;4.10;32.80;;;;;;5002166;28;20471;-61
2023/03/03 04:46:51;;;;;;;61.70;32.70;;;4.10;32.70;;;;;;5007553;28;20474;-61
2023/03/03 04:49:18;;;;;;;68.90;32.83;;;4.00;32.70;;;;;;5007900;28;20456;-61
2023/03/03 04:51:45;;;;;;;63.37;33.47;;;4.00;32.70;;;;;;5001978;28;20858;-61
2023/03/03 04:54:11;;;;;;;64.80;32.80;;;4.00;32.70;;;;;;5034833;22;20487;-67
2023/03/03 04:56:38;;;;;;;63.77;34.07;;;4.00;32.60;;;;;;5025611;28;20499;-67
2023/03/03 04:59:05;;;;;;;55.77;31.03;;;4.10;32.70;;;;;;5022815;28;20974;-69
2023/03/03 05:01:33;;;;;;;60.70;32.50;;;4.10;32.70;;;;;;5022086;28;20482;-64
2023/03/03 05:03:59;;;;;;;58.67;30.77;;;4.10;32.60;;;;;;5007244;28;20867;-63
2023/03/03 05:06:26;;;;;;;61.33;31.47;;;4.10;32.70;;;;;;5003657;28;20464;-64
2023/03/03 05:08:53;;;;;;;58.87;32.00;;;4.10;32.70;;;;;;5005405;28;20463;-64
2023/03/03 05:11:20;;;;;;;61.00;33.80;;;4.10;32.70;;;;;;5001098;28;21150;-64
2023/03/03 05:13:47;;;;;;;60.30;31.47;;;4.10;32.90;;;;;;5006571;28;20479;-65
2023/03/03 05:16:14;;;;;;;64.97;32.30;;;4.10;32.90;;;;;;5007600;28;20490;-64
2023/03/03 05:18:42;;;;;;;63.97;31.97;;;4.10;32.80;;;;;;5006383;28;20703;-64
2023/03/03 05:21:08;;;;;;;63.00;33.53;;;4.10;32.70;;;;;;5001275;28;20483;-64
2023/03/03 05:23:35;;;;;;;57.60;30.70;;;4.10;32.60;;;;;;5005284;28;20488;-64
2023/03/03 05:26:02;;;;;;;61.47;34.47;;;4.10;32.60;;;;;;5004432;28;21079;-64
2023/03/03 05:28:28;;;;;;;63.40;33.60;;;4.10;32.60;;;;;;5003499;28;20464;-64
2023/03/03 05:30:55;;;;;;;66.20;34.30;;;4.10;32.70;;;;;;4998405;28;20468;-63
2023/03/03 05:33:22;;;;;;;62.77;31.70;;;4.20;32.60;;;;;;4995449;28;20483;-64
2023/03/03 05:35:53;;;;;;;63.80;33.60;;;4.20;32.50;;;;;;4997710;28;20473;-64
2023/03/03 05:38:20;;;;;;;58.30;29.47;;;4.10;32.50;;;;;;5001662;28;20492;-62
2023/03/03 05:40:47;;;;;;;68.30;35.23;;;4.10;32.50;;;;;;5003989;28;20470;-63
2023/03/03 05:43:14;;;;;;;60.17;32.53;;;4.10;32.70;;;;;;5008415;28;20483;-62
2023/03/03 05:45:40;;;;;;;63.37;32.93;;;4.10;32.80;;;;;;4998941;28;20463;-62
2023/03/03 05:48:09;;;;;;;66.20;33.50;;;4.20;32.70;;;;;;5007243;28;20459;-62
2023/03/03 05:50:36;;;;;;;64.87;33.80;;;4.20;32.50;;;;;;4998520;28;20514;-62
2023/03/03 05:53:04;;;;;;;65.57;33.47;;;4.20;32.60;;;;;;5007809;28;20499;-63
2023/03/03 05:55:31;;;;;;;66.33;36.60;;;4.20;32.80;;;;;;5002834;28;20456;-63
2023/03/03 05:57:58;;;;;;;71.73;36.23;;;4.20;32.70;;;;;;5008555;28;20480;-62
2023/03/03 06:00:25;;;;;;;65.97;34.77;;;4.20;32.70;;;;;;5004566;28;20456;-66
2023/03/03 06:02:51;;;;;;;69.73;35.53;;;4.10;32.70;;;;;;5003637;28;20475;-66
2023/03/03 06:05:18;;;;;;;64.13;35.90;;;4.10;32.90;;;;;;5003202;28;20463;-65
2023/03/03 06:07:45;;;;;;;68.00;35.20;;;4.10;32.80;;;;;;5004796;28;20452;-65
2023/03/03 06:10:13;;;;;;;57.57;32.43;;;4.10;33.00;;;;;;5004583;28;20504;-65
2023/03/03 06:12:41;;;;;;;68.03;34.83;;;4.10;32.90;;;;;;5004428;28;20486;-65
2023/03/03 06:15:09;;;;;;;66.50;35.03;;;4.10;33.00;;;;;;5002465;28;21014;-65
2023/03/03 06:17:35;;;;;;;63.83;34.37;;;4.10;33.10;;;;;;5005945;28;20563;-64
2023/03/03 06:20:03;;;;;;;72.73;35.80;;;4.10;33.10;;;;;;5005175;28;20464;-65
2023/03/03 06:22:30;;;;;;;70.37;35.53;;;4.10;33.20;;;;;;5005465;28;20463;-65
2023/03/03 06:24:57;;;;;;;63.93;32.63;;;4.10;33.20;;;;;;5006522;28;20555;-65
2023/03/03 06:27:25;;;;;;;60.97;32.40;;;4.10;33.20;;;;;;5006026;28;20460;-64
2023/03/03 06:29:51;;;;;;;67.10;34.43;;;4.00;33.20;;;;;;5008470;28;20992;-65
2023/03/03 06:32:18;;;;;;;61.00;34.17;;;4.00;33.10;;;;;;5003951;28;20487;-65
2023/03/03 06:34:45;;;;;;;67.30;34.07;;;4.00;33.00;;;;;;5002809;28;20479;-65
2023/03/03 06:37:12;;;;;;;62.97;32.60;;;4.10;33.10;;;;;;5003052;28;20464;-65
2023/03/03 06:39:39;;;;;;;59.47;32.27;;;4.10;33.10;;;;;;5004750;28;20469;-64
2023/03/03 06:42:06;;;;;;;68.37;35.03;;;4.10;33.00;;;;;;5001929;28;20464;-64
2023/03/03 06:44:34;;;;;;;65.70;33.90;;;4.10;33.10;;;;;;4993395;28;21068;-65
2023/03/03 06:47:00;;;;;;;66.30;33.50;;;4.10;33.10;;;;;;4999518;28;21208;-65
2023/03/03 06:49:27;;;;;;;65.63;32.80;;;4.10;33.10;;;;;;5005469;28;20483;-66
2023/03/03 06:51:54;;;;;;;70.93;33.33;;;4.10;33.10;;;;;;4995761;28;20476;-65
2023/03/03 06:54:27;;;;;;;61.53;33.20;;;4.20;33.20;;;;;;5004456;28;21002;-73
2023/03/03 06:56:58;;;;;;;65.93;33.63;;;4.60;33.40;;;;;;5001641;28;20464;-73
2023/03/03 06:59:27;;;;;;;62.47;35.53;;;4.20;33.40;;;;;;5003032;28;20491;-68
2023/03/03 07:01:56;;;;;;;62.57;35.57;;;4.20;33.40;;;;;;4999414;28;20490;-71
2023/03/03 07:04:29;;;;;;;64.07;34.97;;;4.30;33.30;;;;;;5002201;28;20486;-71
2023/03/03 07:06:57;;;;;;;65.37;32.67;;;4.30;33.20;;;;;;5005611;28;20491;-72
2023/03/03 07:09:26;;;;;;;63.93;33.77;;;4.30;33.00;;;;;;5004547;28;20488;-74
2023/03/03 07:11:56;;;;;;;61.60;33.00;;;4.40;32.70;;;;;;4999086;28;20465;-75
2023/03/03 07:14:23;;;;;;;60.57;33.50;;;4.40;32.70;;;;;;5005194;28;20486;-74
2023/03/03 07:16:56;;;;;;;65.40;34.13;;;4.40;32.60;;;;;;5002771;28;20458;-74
2023/03/03 07:19:32;;;;;;;64.40;34.13;;;4.40;32.60;;;;;;5002729;28;20484;-74
2023/03/03 07:22:01;;;;;;;65.73;35.63;;;4.40;32.60;;;;;;5002931;28;20832;-73
2023/03/03 07:24:29;;;;;;;60.30;33.63;;;4.50;32.60;;;;;;5000444;28;20484;-71
2023/03/03 07:27:00;;;;;;;66.70;35.63;;;4.50;32.20;;;;;;5002269;28;20479;-73
2023/03/03 07:29:29;;;;;;;58.87;32.80;;;4.60;32.10;;;;;;5002522;28;20491;-73
2023/03/03 07:31:57;;;;;;;68.97;35.27;;;4.50;32.10;;;;;;4996926;28;20519;-74
2023/03/03 07:34:30;;;;;;;63.07;34.87;;;4.50;32.10;;;;;;5002567;28;20527;-70
2023/03/03 07:36:59;;;;;;;63.73;34.20;;;4.50;32.00;;;;;;4999799;28;20471;-71
2023/03/03 07:39:31;;;;;;;65.90;36.37;;;4.60;31.90;;;;;;4998645;28;20576;-69
2023/03/03 07:42:18;;;;;;;59.70;32.30;;;4.60;32.00;;;;;;5001662;28;20510;-64
2023/03/03 07:44:45;;;;;;;63.97;34.23;;;4.60;32.00;;;;;;5000890;28;21019;-64
2023/03/03 07:47:19;;;;;;;64.57;34.10;;;4.80;32.10;;;;;;5005241;28;20459;-65
2023/03/03 07:49:48;;;;;;;61.50;35.43;;;4.60;32.00;;;;;;5002691;28;20491;-64
2023/03/03 07:52:25;;;;;;;64.90;35.60;;;4.60;32.00;;;;;;5000080;28;20487;-64
2023/03/03 07:54:52;;;;;;;62.30;34.67;;;4.60;32.20;;;;;;5001470;28;20464;-64
2023/03/03 07:57:23;;;;;;;66.87;35.17;;;4.70;32.20;;;;;;5003971;28;20476;-64
2023/03/03 07:59:51;;;;;;;75.87;34.17;;;4.70;32.10;;;;;;4997838;28;20482;-64
2023/03/03 08:02:36;;;;;;;68.70;36.23;;;4.70;32.10;;;;;;5002491;28;20484;-65
2023/03/03 08:05:27;;;;;;;62.47;33.67;;;4.80;32.00;;;;;;4992088;28;20467;-67
2023/03/03 08:07:58;;;;;;;73.73;38.30;;;4.80;31.90;;;;;;4997447;28;20452;-64
2023/03/03 08:10:38;;;;;;;61.67;35.33;;;4.80;31.70;;;;;;5004330;28;20472;-70
2023/03/03 08:13:16;;;;;;;61.27;35.07;;;4.90;31.40;;;;;;5005137;28;20567;-70
2023/03/03 08:15:44;;;;;;;63.67;34.70;;;4.90;30.90;;;;;;5001132;28;20466;-69
2023/03/03 08:18:21;;;;;;;63.93;34.37;;;4.90;30.80;;;;;;5002699;28;20472;-68
2023/03/03 08:20:50;;;;;;;66.03;34.23;;;5.00;30.90;;;;;;5004481;28;20463;-70
2023/03/03 08:23:19;;;;;;;73.17;37.03;;;5.00;30.40;;;;;;4996826;28;20910;-69
2023/03/03 08:25:47;;;;;;;64.53;34.30;;;5.00;30.50;;;;;;5004558;28;20464;-69
2023/03/03 08:28:14;;;;;;;61.03;35.13;;;5.00;30.50;;;;;;4999412;28;20510;-70
2023/03/03 08:30:41;;;;;;;58.17;32.97;;;5.00;30.50;;;;;;4999686;28;20467;-68
2023/03/03 08:33:08;;;;;;;64.43;35.30;;;5.00;30.40;;;;;;5002808;28;20486;-68
2023/03/03 08:35:35;;;;;;;56.90;33.80;;;5.00;30.50;;;;;;4999486;28;20470;-68
2023/03/03 08:38:04;;;;;;;63.07;36.97;;;5.10;30.30;;;;;;5001123;28;20483;-68
2023/03/03 08:40:30;;;;;;;71.60;36.70;;;5.10;30.50;;;;;;4996108;28;20460;-68
2023/03/03 08:42:58;;;;;;;60.83;33.90;;;5.20;30.30;;;;;;4992331;28;20487;-71
2023/03/03 08:45:25;;;;;;;65.00;35.43;;;5.20;30.20;;;;;;5003004;28;20499;-70
2023/03/03 08:47:51;;;;;;;60.10;33.67;;;5.30;30.40;;;;;;5003750;28;20470;-71
2023/03/03 08:50:19;;;;;;;60.47;34.93;;;5.30;30.60;;;;;;5002600;28;20463;-69
2023/03/03 08:52:46;;;;;;;64.50;35.30;;;5.40;30.40;;;;;;5006665;28;20487;-71
2023/03/03 08:55:14;;;;;;;62.30;36.50;;;5.40;30.50;;;;;;4998512;28;20456;-67
2023/03/03 08:57:41;;;;;;;64.60;35.13;;;5.50;30.20;;;;;;5002978;28;20475;-64
2023/03/03 09:00:10;;;;;;;67.13;36.70;;;5.50;30.00;;;;;;5006120;28;20567;-63
2023/03/03 09:02:37;;;;;;;61.63;34.67;;;5.50;30.00;;;;;;5006085;28;21799;-64
2023/03/03 09:05:04;;;;;;;65.00;36.47;;;5.50;30.00;;;;;;5007891;28;20812;-63
2023/03/03 09:07:31;;;;;;;65.33;36.60;;;5.60;29.90;;;;;;5009202;28;20479;-69
2023/03/03 09:09:58;;;;;;;71.03;36.90;;;5.70;29.90;;;;;;5004439;28;21087;-65
2023/03/03 09:12:30;;;;;;;60.80;36.07;;;5.70;29.80;;;;;;5005945;28;20472;-65
2023/03/03 09:15:00;;;;;;;69.27;36.80;;;5.80;29.50;;;;;;5004092;28;21027;-66
2023/03/03 09:17:32;;;;;;;62.23;37.03;;;5.90;28.80;;;;;;5007592;28;20838;-68
2023/03/03 09:20:02;;;;;;;64.60;35.30;;;5.90;28.60;;;;;;5003060;28;20487;-68
2023/03/03 09:22:29;;;;;;;62.33;34.00;;;6.00;28.60;;;;;;5005613;28;20468;-63
2023/03/03 09:24:58;;;;;;;62.77;35.63;;;6.00;28.40;;;;;;5002165;28;20580;-69
2023/03/03 09:27:29;;;;;;;61.73;33.07;;;6.10;28.20;;;;;;5001246;28;20463;-67
2023/03/03 09:29:57;;;;;;;60.33;35.20;;;6.20;28.00;;;;;;5003953;28;20455;-67
2023/03/03 09:32:34;;;;;;;62.07;35.63;;;6.30;27.30;;;;;;5002251;28;20493;-65
2023/03/03 09:35:22;;;;;;;62.40;34.70;;;6.30;27.40;;;;;;5004649;28;20467;-68
2023/03/03 09:37:51;;;;;;;60.93;38.53;;;6.40;27.30;;;;;;5003045;28;20458;-67
2023/03/03 09:40:42;;;;;;;57.67;35.33;;;6.40;27.40;;;;;;5000524;28;20484;-62
2023/03/03 09:43:17;;;;;;;64.50;35.33;;;6.40;27.20;;;;;;5005141;28;20480;-66
2023/03/03 09:45:57;;;;;;;59.90;36.50;;;6.50;27.00;;;;;;4998316;28;20479;-67
2023/03/03 09:48:43;;;;;;;63.30;37.97;;;6.50;26.90;;;;;;5005731;28;20455;-67
2023/03/03 09:51:37;;;;;;;62.00;36.70;;;6.50;26.80;;;;;;5005351;28;20984;-65
2023/03/03 09:54:30;;;;;;;76.93;39.20;;;6.60;26.70;;;;;;5002595;28;20495;-67
2023/03/03 09:57:04;;;;;;;63.00;36.20;;;6.70;26.80;;;;;;4993261;28;20470;-67
2023/03/03 09:59:43;;;;;;;63.03;36.77;;;6.80;26.50;;;;;;5000435;28;20491;-67
2023/03/03 10:02:36;;;;;;;64.13;38.43;;;6.90;26.50;;;;;;4995732;28;20497;-69
2023/03/03 10:05:14;;;;;;;66.37;39.90;;;6.90;26.40;;;;;;5005093;28;20986;-69
2023/03/03 10:07:52;;;;;;;67.10;40.23;;;6.90;26.20;;;;;;5003828;28;20547;-67
2023/03/03 10:10:44;;;;;;;65.03;41.30;;;7.00;26.20;;;;;;5001663;28;20455;-65
2023/03/03 10:13:21;;;;;;;62.03;41.30;;;7.10;26.20;;;;;;5005519;28;20475;-65
2023/03/03 10:16:04;;;;;;;71.43;41.97;;;7.20;25.90;;;;;;5009162;28;20456;-66
2023/03/03 10:18:39;;;;;;;63.97;39.27;;;7.30;25.90;;;;;;5007468;28;20479;-66
2023/03/03 10:21:11;;;;;;;61.80;35.30;;;7.40;25.60;;;;;;5005323;28;20458;-65
2023/03/03 10:23:55;;;;;;;58.53;35.07;;;7.40;25.50;;;;;;5001938;28;22925;-66
2023/03/03 10:26:39;;;;;;;57.30;34.27;;;7.50;25.50;;;;;;5003686;28;20463;-71
2023/03/03 10:29:17;;;;;;;60.40;37.03;;;7.50;25.10;;;;;;5006652;28;20485;-70
2023/03/03 10:32:00;;;;;;;59.73;37.43;;;7.60;24.60;;;;;;4996830;28;20479;-72
2023/03/03 10:34:43;;;;;;;63.20;37.90;;;7.60;24.30;;;;;;4997209;28;20487;-72
2023/03/03 10:37:16;;;;;;;63.23;40.90;;;7.60;24.20;;;;;;4991600;28;21040;-72
2023/03/03 10:40:01;;;;;;;56.60;36.57;;;7.70;24.10;;;;;;5001311;28;20832;-73
2023/03/03 10:42:49;;;;;;;56.33;36.37;;;7.80;24.10;;;;;;4997797;28;20471;-73
2023/03/03 10:45:40;;;;;;;63.50;37.80;;;7.90;23.90;;;;;;4998400;28;20466;-72
2023/03/03 10:48:23;;;;;;;55.67;37.53;;;8.00;23.40;;;;;;4998904;28;20463;-73
2023/03/03 10:50:56;;;;;;;58.00;35.50;;;8.10;23.20;;;;;;4996915;28;20464;-73
2023/03/03 10:53:30;;;;;;;63.80;38.07;;;8.20;23.10;;;;;;5030210;22;21411;-64
2023/03/03 10:56:16;;;;;;;59.23;35.87;;;8.30;22.60;;;;;;5027093;28;20993;-63
2023/03/03 10:58:49;;;;;;;59.10;38.33;;;8.50;22.40;;;;;;5034874;28;20877;-64
2023/03/03 11:01:25;;;;;;;57.23;35.80;;;8.60;21.90;;;;;;5033921;28;20990;-64
2023/03/03 11:04:21;;;;;;;55.60;35.40;;;8.80;21.60;;;;;;5020788;28;20489;-64
2023/03/03 11:06:55;;;;;;;60.00;37.20;;;9.00;21.10;;;;;;5016800;28;21018;-63
2023/03/03 11:09:39;;;;;;;60.20;36.53;;;9.20;20.10;;;;;;5025567;28;20458;-63
2023/03/03 11:12:18;;;;;;;61.53;36.63;;;9.40;19.70;;;;;;5023142;28;21030;-64
2023/03/03 11:14:51;;;;;;;61.00;36.20;;;9.80;19.50;;;;;;5022023;28;21013;-63
2023/03/03 11:17:24;;;;;;;59.60;38.00;;;10.30;17.90;;;;;;5019222;28;20467;-64
2023/03/03 11:20:03;;;;;;;55.13;35.60;;;10.70;17.30;;;;;;5026002;28;21031;-64
2023/03/03 11:22:42;;;;;;;51.50;34.20;;;11.10;16.30;;;;;;5021656;28;20463;-63
2023/03/03 11:25:19;;;;;;;50.60;36.50;;;11.30;15.70;;;;;;5027131;28;20466;-64
2023/03/03 11:28:00;;;;;;;57.00;37.37;;;11.50;15.60;;;;;;5021226;28;20470;-65
2023/03/03 11:30:35;;;;;;;57.13;37.03;;;11.70;15.10;;;;;;5024948;28;20466;-64
2023/03/03 11:33:06;;;;;;;50.37;34.30;;;11.90;14.90;;;;;;5023652;28;20478;-64
2023/03/03 11:35:43;;;;;;;54.07;35.13;;;12.10;14.30;;;;;;5027512;28;20477;-65
2023/03/03 11:38:34;;;;;;;55.93;37.83;;;12.30;13.40;;;;;;5026007;28;20459;-64
2023/03/03 11:41:04;;;;;;;53.20;36.00;;;12.30;13.10;;;;;;5017052;28;20451;-64
2023/03/03 11:43:37;;;;;;;49.30;32.73;;;12.30;12.00;;;;;;5027302;28;20474;-64
2023/03/03 11:46:07;;;;;;;51.17;32.47;;;12.20;11.80;;;;;;5026452;28;20462;-63
2023/03/03 11:48:42;;;;;;;50.00;32.50;;;12.20;12.40;;;;;;5022157;28;20458;-64
2023/03/03 11:51:15;;;;;;;48.37;32.03;;;12.10;11.40;;;;;;5020976;28;20475;-64
2023/03/03 11:53:55;;;;;;;44.70;30.80;;;12.00;11.90;;;;;;5022288;28;20505;-63
2023/03/03 11:56:26;;;;;;;46.00;34.33;;;12.00;12.20;;;;;;5023165;28;20458;-64
2023/03/03 11:59:03;;;;;;;46.97;32.50;;;12.10;12.40;;;;;;5019802;28;20454;-64
2023/03/03 12:01:36;;;;;;;48.20;32.20;;;12.00;12.20;;;;;;5016478;28;20514;-64
2023/03/03 12:04:06;;;;;;;54.17;34.63;;;12.00;12.20;;;;;;5018714;28;20494;-64
2023/03/03 12:07:01;;;;;;;49.60;32.93;;;12.00;12.20;;;;;;5025467;28;20482;-64
2023/03/03 12:09:39;;;;;;;53.97;34.20;;;12.00;12.20;;;;;;5024761;28;20462;-64
2023/03/03 12:12:12;;;;;;;45.17;32.20;;;12.10;12.40;;;;;;5015515;28;20466;-64
2023/03/03 12:14:51;;;;;;;48.13;32.83;;;12.20;12.40;;;;;;5020527;28;20475;-64
2023/03/03 12:17:39;;;;;;;47.47;30.50;;;12.40;12.20;;;;;;5027230;28;20454;-65
2023/03/03 12:20:15;;;;;;;50.50;34.07;;;12.40;11.70;;;;;;5019355;28;20484;-65
2023/03/03 12:22:52;;;;;;;44.30;32.50;;;12.60;11.70;;;;;;5016953;28;20454;-64
2023/03/03 12:25:23;;;;;;;51.80;34.53;;;12.70;12.00;;;;;;5024452;28;20462;-65
2023/03/03 12:27:56;;;;;;;50.27;31.83;;;12.80;11.60;;;;;;5025123;28;20494;-64
2023/03/03 12:30:38;;;;;;;49.70;31.87;;;12.80;11.40;;;;;;5018872;28;20481;-64
2023/03/03 12:33:19;;;;;;;49.80;32.73;;;12.80;11.20;;;;;;5026532;28;20483;-63
2023/03/03 12:35:55;;;;;;;52.27;31.63;;;12.80;11.60;;;;;;5023349;28;20458;-65
2023/03/03 12:38:31;;;;;;;48.13;31.73;;;12.70;11.30;;;;;;5030047;28;20458;-64
2023/03/03 12:41:04;;;;;;;50.73;33.43;;;12.70;11.60;;;;;;5020300;28;20474;-64
2023/03/03 12:43:50;;;;;;;43.93;30.10;;;12.70;11.30;;;;;;5019042;28;20475;-64
2023/03/03 12:46:25;;;;;;;47.20;32.37;;;12.70;11.30;;;;;;5018926;28;20459;-65
2023/03/03 12:48:52;;;;;;;47.83;31.33;;;12.60;11.10;;;;;;5025035;28;20466;-65
2023/03/03 12:51:37;;;;;;;47.00;30.83;;;12.50;11.20;;;;;;5025480;28;20461;-65
2023/03/03 12:54:29;;;;;;;48.57;31.90;;;12.50;11.70;;;;;;5015055;28;20491;-64
2023/03/03 12:57:00;;;;;;;55.90;33.57;;;12.50;11.70;;;;;;5021436;28;20471;-64